Time;durP1;ratioP1;P1;durP2;ratioP2;P2;SDS_P1;SDS_P2;PMS_P1;PMS_P2;Temp;Humidity;BMP_temperature;BMP_pressure;BME280_temperature;BME280_humidity;BME280_pressure;Samples;Min_cycle;Max_cycle;Signal;HPM_P1;HPM_P2
2020/12/22 00:00:14;;;;;;;3.70;2.47;;;12.20;95.40;;;;;;5057721;28;20500;-79
2020/12/22 00:02:44;;;;;;;2.60;2.40;;;12.20;95.40;;;;;;5058196;28;20033;-87
2020/12/22 00:05:13;;;;;;;3.85;2.70;;;12.30;95.70;;;;;;5095312;28;20059;-88
2020/12/22 00:07:40;;;;;;;2.45;2.25;;;12.30;95.40;;;;;;5079075;28;20107;-88
2020/12/22 00:10:07;;;;;;;2.88;2.25;;;12.40;95.30;;;;;;5078649;28;20043;-88
2020/12/22 00:12:33;;;;;;;2.53;2.33;;;12.40;95.20;;;;;;5062268;28;20043;-88
2020/12/22 00:15:00;;;;;;;4.40;2.17;;;12.40;95.20;;;;;;5078335;28;20032;-88
2020/12/22 00:17:26;;;;;;;2.70;2.03;;;12.40;95.20;;;;;;5061632;28;20051;-88
2020/12/22 00:19:52;;;;;;;4.53;2.70;;;12.50;95.20;;;;;;5061866;28;20038;-88
2020/12/22 00:22:17;;;;;;;2.85;2.50;;;12.50;95.20;;;;;;5079356;28;20087;-87
2020/12/22 00:24:43;;;;;;;3.85;2.10;;;12.60;95.10;;;;;;5061760;28;20039;-87
2020/12/22 00:27:09;;;;;;;2.63;2.00;;;12.50;95.10;;;;;;5078335;28;20024;-88
2020/12/22 00:29:36;;;;;;;2.15;2.00;;;12.60;95.10;;;;;;5095639;28;20024;-81
2020/12/22 00:32:02;;;;;;;3.10;1.83;;;12.60;95.00;;;;;;5094790;28;20031;-81
2020/12/22 00:34:28;;;;;;;2.67;2.38;;;12.60;95.00;;;;;;5084338;28;20035;-81
2020/12/22 00:36:54;;;;;;;2.47;2.22;;;12.70;95.00;;;;;;5094192;28;20158;-81
2020/12/22 00:39:20;;;;;;;2.38;1.88;;;12.70;94.90;;;;;;5076378;28;20102;-81
2020/12/22 00:41:53;;;;;;;3.00;2.30;;;12.70;94.80;;;;;;5076461;28;20063;-81
2020/12/22 00:44:19;;;;;;;3.53;2.40;;;12.80;94.80;;;;;;5094922;28;20023;-81
2020/12/22 00:46:45;;;;;;;2.78;2.47;;;12.80;94.80;;;;;;5076540;28;20488;-81
2020/12/22 00:49:10;;;;;;;2.60;2.40;;;12.80;94.70;;;;;;5076793;28;20059;-81
2020/12/22 00:51:36;;;;;;;3.25;2.50;;;12.80;94.80;;;;;;5043027;28;20042;-81
2020/12/22 00:54:01;;;;;;;5.82;2.95;;;12.80;94.70;;;;;;5077083;28;20107;-81
2020/12/22 00:56:27;;;;;;;2.67;2.47;;;12.80;94.80;;;;;;5094658;28;20485;-80
2020/12/22 00:58:52;;;;;;;2.70;2.50;;;12.80;94.80;;;;;;5076585;28;20035;-81
2020/12/22 01:01:18;;;;;;;4.45;2.72;;;12.80;94.80;;;;;;5094470;28;20484;-81
2020/12/22 01:03:45;;;;;;;3.70;2.60;;;12.80;94.80;;;;;;5058649;28;20047;-80
2020/12/22 01:06:11;;;;;;;4.15;2.90;;;12.80;94.90;;;;;;5076148;28;20024;-81
2020/12/22 01:08:36;;;;;;;2.90;2.60;;;12.90;94.90;;;;;;5043056;28;20028;-81
2020/12/22 01:11:02;;;;;;;3.67;2.65;;;12.80;94.90;;;;;;5076344;28;20028;-81
2020/12/22 01:13:28;;;;;;;3.83;2.90;;;12.90;94.80;;;;;;5059648;28;20064;-81
2020/12/22 01:15:54;;;;;;;3.55;2.50;;;12.90;94.80;;;;;;5094249;28;20027;-81
2020/12/22 01:18:19;;;;;;;3.58;2.80;;;12.90;94.80;;;;;;5076275;28;20039;-81
2020/12/22 01:20:48;;;;;;;4.43;2.70;;;12.90;94.80;;;;;;5059579;28;20027;-81
2020/12/22 01:23:14;;;;;;;;;;;12.90;94.90;;;;;;5076514;28;20028;-81
2020/12/22 01:25:40;;;;;;;3.38;2.50;;;12.90;94.80;;;;;;5076283;28;20356;-81
2020/12/22 01:28:06;;;;;;;3.35;2.40;;;12.80;94.80;;;;;;5076168;28;20043;-81
2020/12/22 01:30:32;;;;;;;5.30;2.65;;;12.90;94.90;;;;;;5075864;28;20028;-81
2020/12/22 01:32:58;;;;;;;4.57;2.60;;;12.90;95.20;;;;;;5075629;28;20016;-81
2020/12/22 01:35:23;;;;;;;3.65;2.60;;;12.90;94.90;;;;;;5093865;28;20032;-81
2020/12/22 01:37:49;;;;;;;4.03;2.28;;;12.90;94.90;;;;;;5059129;28;20032;-81
2020/12/22 01:40:15;;;;;;;3.85;2.75;;;12.90;94.90;;;;;;5093823;28;20051;-81
2020/12/22 01:42:44;;;;;;;3.22;2.30;;;12.90;94.90;;;;;;5059070;28;20503;-81
2020/12/22 01:45:11;;;;;;;2.40;2.20;;;12.90;94.90;;;;;;5075395;28;20101;-81
2020/12/22 01:47:46;;;;;;;2.15;1.95;;;12.90;94.90;;;;;;5075620;28;20020;-80
2020/12/22 01:50:16;;;;;;;2.58;2.03;;;12.90;94.90;;;;;;5075505;28;20028;-81
2020/12/22 01:52:42;;;;;;;6.00;2.05;;;12.90;94.90;;;;;;5075571;28;20103;-81
2020/12/22 01:55:08;;;;;;;4.28;1.90;;;12.90;94.90;;;;;;5075887;28;20023;-81
2020/12/22 01:57:34;;;;;;;3.72;1.70;;;12.90;94.90;;;;;;5075879;28;20488;-81
2020/12/22 02:00:00;;;;;;;3.38;1.50;;;13.00;94.90;;;;;;5058749;28;20024;-81
2020/12/22 02:02:26;;;;;;;2.58;1.60;;;12.90;94.90;;;;;;5093593;28;20247;-81
2020/12/22 02:04:52;;;;;;;3.17;1.65;;;13.00;94.90;;;;;;5075202;28;20500;-81
2020/12/22 02:07:19;;;;;;;1.90;1.45;;;13.00;94.90;;;;;;5075571;28;20027;-81
2020/12/22 02:09:46;;;;;;;4.78;2.08;;;13.00;94.90;;;;;;5075391;28;20421;-81
2020/12/22 02:12:12;;;;;;;4.93;1.33;;;13.00;94.90;;;;;;5093382;28;20109;-81
2020/12/22 02:14:38;;;;;;;7.38;1.70;;;13.00;94.90;;;;;;5093057;28;20055;-81
2020/12/22 02:17:04;;;;;;;3.80;1.45;;;13.00;94.80;;;;;;5075244;28;20153;-81
2020/12/22 02:19:29;;;;;;;5.55;1.85;;;13.00;94.90;;;;;;5075183;28;20165;-81
2020/12/22 02:21:55;;;;;;;6.88;1.52;;;13.00;94.90;;;;;;5058733;28;20111;-81
2020/12/22 02:24:21;;;;;;;7.55;1.70;;;13.10;94.90;;;;;;5093198;28;20024;-81
2020/12/22 02:26:47;;;;;;;9.20;1.77;;;13.10;94.90;;;;;;5075304;28;20034;-81
2020/12/22 02:29:13;;;;;;;7.40;1.42;;;13.10;95.10;;;;;;5075204;28;20036;-81
2020/12/22 02:31:38;;;;;;;6.55;1.33;;;13.10;94.80;;;;;;5075245;28;20358;-81
2020/12/22 02:34:04;;;;;;;5.97;1.67;;;13.10;94.80;;;;;;5093281;28;20040;-81
2020/12/22 02:36:32;;;;;;;9.55;1.27;;;13.20;94.80;;;;;;5074962;28;20111;-81
2020/12/22 02:38:57;;;;;;;3.05;1.30;;;13.20;94.70;;;;;;5058607;28;20111;-81
2020/12/22 02:41:23;;;;;;;5.60;1.23;;;13.20;94.60;;;;;;5093201;28;20452;-87
2020/12/22 02:43:48;;;;;;;4.00;1.10;;;13.20;94.50;;;;;;5042542;28;20069;-88
2020/12/22 02:46:14;;;;;;;5.07;1.15;;;13.20;94.40;;;;;;5042773;28;20039;-87
2020/12/22 02:48:40;;;;;;;5.00;1.40;;;13.30;94.40;;;;;;5042654;28;20131;-87
2020/12/22 02:51:05;;;;;;;7.15;1.30;;;13.30;94.30;;;;;;5059213;28;20035;-88
2020/12/22 02:53:31;;;;;;;4.68;0.95;;;13.40;94.30;;;;;;5042774;28;20498;-88
2020/12/22 02:55:57;;;;;;;3.53;0.90;;;13.40;94.20;;;;;;5042663;28;20032;-88
2020/12/22 02:58:22;;;;;;;6.28;1.02;;;13.40;94.10;;;;;;5059188;28;20030;-87
2020/12/22 03:00:48;;;;;;;5.55;1.00;;;13.40;94.10;;;;;;5042748;28;20032;-87
2020/12/22 03:03:14;;;;;;;5.20;0.90;;;13.40;94.10;;;;;;5042249;28;20071;-87
2020/12/22 03:05:40;;;;;;;5.25;1.13;;;13.40;94.00;;;;;;5059011;28;20055;-88
2020/12/22 03:08:08;;;;;;;5.75;1.15;;;13.40;94.00;;;;;;5059031;28;20032;-87
2020/12/22 03:10:34;;;;;;;5.03;1.08;;;13.40;94.00;;;;;;5075871;28;20031;-88
2020/12/22 03:13:00;;;;;;;5.63;1.42;;;13.40;94.00;;;;;;5058952;28;20036;-88
2020/12/22 03:15:25;;;;;;;4.20;1.25;;;13.40;94.00;;;;;;5058888;28;20036;-87
2020/12/22 03:17:51;;;;;;;4.15;0.90;;;13.40;94.00;;;;;;5075467;28;20035;-87
2020/12/22 03:20:17;;;;;;;4.40;1.00;;;13.40;94.10;;;;;;5058771;28;20031;-88
2020/12/22 03:22:43;;;;;;;1.70;0.80;;;13.40;94.20;;;;;;5058905;28;20084;-87
2020/12/22 03:25:11;;;;;;;5.07;0.80;;;13.40;94.20;;;;;;5058957;28;20028;-87
2020/12/22 03:27:37;;;;;;;3.08;0.90;;;13.40;94.20;;;;;;5078166;28;20168;-88
2020/12/22 03:30:05;;;;;;;2.28;0.95;;;13.40;94.30;;;;;;5079150;28;20024;-88
2020/12/22 03:32:31;;;;;;;2.92;0.80;;;13.40;94.30;;;;;;5079164;28;20105;-88
2020/12/22 03:34:56;;;;;;;3.70;1.10;;;13.40;94.60;;;;;;5062760;28;20426;-88
2020/12/22 03:37:22;;;;;;;3.72;1.00;;;13.40;94.60;;;;;;5062332;28;20126;-88
2020/12/22 03:39:51;;;;;;;2.45;0.90;;;13.30;94.40;;;;;;5062311;28;20064;-88
2020/12/22 03:42:18;;;;;;;2.85;0.98;;;13.40;94.50;;;;;;5062454;28;20020;-88
2020/12/22 03:44:44;;;;;;;2.28;1.08;;;13.30;94.50;;;;;;5062746;28;20099;-88
2020/12/22 03:47:11;;;;;;;2.00;0.88;;;13.30;94.50;;;;;;5078785;28;20028;-87
2020/12/22 03:49:36;;;;;;;2.70;1.02;;;13.30;94.50;;;;;;5062230;28;20030;-87
2020/12/22 03:52:03;;;;;;;3.53;0.90;;;13.30;94.60;;;;;;5061858;28;20552;-81
2020/12/22 03:54:29;;;;;;;2.08;1.05;;;13.30;94.60;;;;;;5077753;28;20024;-81
2020/12/22 03:56:55;;;;;;;4.07;1.00;;;13.30;94.60;;;;;;5077613;28;20028;-81
2020/12/22 03:59:21;;;;;;;4.15;1.10;;;13.30;94.60;;;;;;5077628;28;20586;-80
2020/12/22 04:01:49;;;;;;;3.92;1.00;;;13.30;94.70;;;;;;5096102;28;20572;-87
2020/12/22 04:04:19;;;;;;;1.67;0.95;;;13.30;94.70;;;;;;5062379;28;20139;-87
2020/12/22 04:06:46;;;;;;;1.23;0.70;;;13.30;94.70;;;;;;5046403;28;20484;-88
2020/12/22 04:09:12;;;;;;;4.10;0.80;;;13.30;94.70;;;;;;5079141;28;20116;-88
2020/12/22 04:11:39;;;;;;;3.33;0.70;;;13.40;94.70;;;;;;5078442;28;20065;-88
2020/12/22 04:14:08;;;;;;;1.42;0.60;;;13.40;94.70;;;;;;5078840;28;20077;-87
2020/12/22 04:16:35;;;;;;;3.20;0.60;;;13.30;94.70;;;;;;5045492;28;20028;-88
2020/12/22 04:19:00;;;;;;;2.75;1.00;;;13.30;94.70;;;;;;5077952;28;20028;-88
2020/12/22 04:21:27;;;;;;;0.98;0.60;;;13.40;94.70;;;;;;5078287;28;20016;-87
2020/12/22 04:23:53;;;;;;;0.88;0.47;;;13.40;94.70;;;;;;5078248;28;20099;-87
2020/12/22 04:26:20;;;;;;;2.38;0.50;;;13.40;94.60;;;;;;5077983;28;20039;-88
2020/12/22 04:28:45;;;;;;;1.10;0.50;;;13.40;94.60;;;;;;5061666;28;20039;-87
2020/12/22 04:31:11;;;;;;;2.58;0.80;;;13.40;94.60;;;;;;5077916;28;20028;-86
2020/12/22 04:33:37;;;;;;;1.17;0.45;;;13.40;94.60;;;;;;5061266;28;20036;-87
2020/12/22 04:36:02;;;;;;;1.90;0.50;;;13.50;94.60;;;;;;5061012;28;20077;-87
2020/12/22 04:38:28;;;;;;;3.53;0.70;;;13.50;94.50;;;;;;5060861;28;20380;-87
2020/12/22 04:40:53;;;;;;;0.90;0.60;;;13.50;94.50;;;;;;5077625;28;20358;-87
2020/12/22 04:43:19;;;;;;;1.27;0.65;;;13.50;94.70;;;;;;5095545;28;20468;-87
2020/12/22 04:45:50;;;;;;;1.40;0.80;;;13.50;94.50;;;;;;5061008;28;20032;-87
2020/12/22 04:48:18;;;;;;;1.77;0.73;;;13.50;94.50;;;;;;5060914;28;20024;-87
2020/12/22 04:50:45;;;;;;;1.75;1.00;;;13.50;94.50;;;;;;5077627;28;20035;-88
2020/12/22 04:53:11;;;;;;;1.50;0.80;;;13.50;94.50;;;;;;5061239;28;20032;-88
2020/12/22 04:55:37;;;;;;;1.10;1.00;;;13.50;94.60;;;;;;5060812;28;20148;-88
2020/12/22 04:58:05;;;;;;;2.83;1.10;;;13.50;94.60;;;;;;5060718;28;20035;-87
2020/12/22 05:00:31;;;;;;;1.37;0.90;;;13.50;94.60;;;;;;5060943;28;20476;-87
2020/12/22 05:03:00;;;;;;;1.83;0.85;;;13.50;94.60;;;;;;5060630;28;20127;-87
2020/12/22 05:05:26;;;;;;;4.78;1.00;;;13.50;94.70;;;;;;5077672;28;20052;-87
2020/12/22 05:07:52;;;;;;;1.70;1.25;;;13.50;94.70;;;;;;5060587;28;20093;-88
2020/12/22 05:10:19;;;;;;;2.92;1.00;;;13.50;94.70;;;;;;5077203;28;20475;-80
2020/12/22 05:12:44;;;;;;;1.23;1.15;;;13.50;94.80;;;;;;5075522;28;20081;-80
2020/12/22 05:15:11;;;;;;;1.30;0.90;;;13.50;94.80;;;;;;5039742;28;20036;-79
2020/12/22 05:17:44;;;;;;;1.17;0.80;;;13.50;94.90;;;;;;5074019;28;20039;-79
2020/12/22 05:20:13;;;;;;;1.88;1.20;;;13.40;94.90;;;;;;5039552;28;20025;-79
2020/12/22 05:22:39;;;;;;;2.40;1.15;;;13.50;94.90;;;;;;5056427;28;20461;-79
2020/12/22 05:25:05;;;;;;;3.10;1.27;;;13.50;94.90;;;;;;5084069;28;20016;-79
2020/12/22 05:27:32;;;;;;;1.52;1.15;;;13.50;95.00;;;;;;5063329;28;20499;-79
2020/12/22 05:30:04;;;;;;;2.45;1.00;;;13.50;95.00;;;;;;5059449;28;20035;-79
2020/12/22 05:32:31;;;;;;;2.13;1.25;;;13.50;95.10;;;;;;5055949;28;20421;-79
2020/12/22 05:34:57;;;;;;;1.90;1.38;;;13.50;95.10;;;;;;5055876;28;20025;-79
2020/12/22 05:37:25;;;;;;;2.53;1.60;;;13.50;95.10;;;;;;5073665;28;20028;-79
2020/12/22 05:39:51;;;;;;;3.83;1.60;;;13.50;95.10;;;;;;5055811;28;20035;-79
2020/12/22 05:42:18;;;;;;;3.10;1.10;;;13.50;95.20;;;;;;5039165;28;20169;-79
2020/12/22 05:44:47;;;;;;;1.70;1.13;;;13.40;95.20;;;;;;5073559;28;20028;-80
2020/12/22 05:47:16;;;;;;;3.13;1.30;;;13.40;95.20;;;;;;5056146;28;20024;-86
2020/12/22 05:49:55;;;;;;;2.25;1.33;;;13.40;95.20;;;;;;5073355;28;20025;-86
2020/12/22 05:52:29;;;;;;;2.53;1.25;;;13.40;95.20;;;;;;5056099;28;20032;-85
2020/12/22 05:54:56;;;;;;;3.65;1.30;;;13.40;95.30;;;;;;5073746;28;20473;-85
2020/12/22 05:57:24;;;;;;;4.50;1.25;;;13.40;95.30;;;;;;5055968;28;20104;-85
2020/12/22 05:59:50;;;;;;;2.50;1.40;;;13.40;95.30;;;;;;5073683;28;20103;-85
2020/12/22 06:02:29;;;;;;;3.30;1.55;;;13.40;95.30;;;;;;5055946;28;20055;-86
2020/12/22 06:04:56;;;;;;;;;;;13.40;95.30;;;;;;5069503;28;20480;-79
2020/12/22 06:07:22;;;;;;;4.60;1.50;;;13.40;95.30;;;;;;5068797;28;19999;-80
2020/12/22 06:09:48;;;;;;;6.30;2.08;;;13.30;95.30;;;;;;5053157;28;20132;-79
2020/12/22 06:12:13;;;;;;;3.10;1.60;;;13.30;95.40;;;;;;5052050;28;20037;-79
2020/12/22 06:14:43;;;;;;;2.08;1.70;;;13.40;95.40;;;;;;5068689;28;20388;-79
2020/12/22 06:17:19;;;;;;;1.98;1.70;;;13.40;95.40;;;;;;5071882;28;20102;-79
2020/12/22 06:19:46;;;;;;;1.65;1.30;;;13.30;95.30;;;;;;5055788;28;20551;-79
2020/12/22 06:22:18;;;;;;;3.55;1.40;;;13.30;95.30;;;;;;5055369;28;20500;-79
2020/12/22 06:24:51;;;;;;;1.67;1.10;;;13.30;95.20;;;;;;5073252;28;20115;-79
2020/12/22 06:27:17;;;;;;;1.38;1.20;;;13.40;95.20;;;;;;5072958;28;20035;-79
2020/12/22 06:29:44;;;;;;;2.55;1.25;;;13.40;95.20;;;;;;5071991;28;20036;-79
2020/12/22 06:32:16;;;;;;;1.83;1.10;;;13.30;95.10;;;;;;5071737;28;20033;-79
2020/12/22 06:34:42;;;;;;;1.05;1.00;;;13.40;95.00;;;;;;5071567;28;20515;-79
2020/12/22 06:37:08;;;;;;;3.80;1.20;;;13.40;94.90;;;;;;5072667;28;20069;-79
2020/12/22 06:39:44;;;;;;;1.45;1.33;;;13.40;94.90;;;;;;5055167;28;20028;-79
2020/12/22 06:42:28;;;;;;;1.38;1.10;;;13.40;94.80;;;;;;5071781;28;20358;-79
2020/12/22 06:44:53;;;;;;;1.35;1.10;;;13.40;94.80;;;;;;5057470;28;20033;-79
2020/12/22 06:47:34;;;;;;;1.55;1.10;;;13.40;94.70;;;;;;5073129;28;20016;-79
2020/12/22 06:49:59;;;;;;;0.98;0.88;;;13.40;94.60;;;;;;5078279;28;20025;-79
2020/12/22 06:52:43;;;;;;;2.50;0.98;;;13.40;94.50;;;;;;5081088;28;20032;-80
2020/12/22 06:55:10;;;;;;;1.38;0.80;;;13.50;94.50;;;;;;5071504;28;20078;-79
2020/12/22 06:57:49;;;;;;;2.08;1.00;;;13.50;94.50;;;;;;5071583;28;20489;-79
2020/12/22 07:00:27;;;;;;;1.55;0.80;;;13.50;94.50;;;;;;5071703;28;20416;-79
2020/12/22 07:03:12;;;;;;;1.67;0.80;;;13.40;94.40;;;;;;5074847;28;20052;-80
2020/12/22 07:05:39;;;;;;;1.50;1.00;;;13.40;94.30;;;;;;5075783;28;20024;-79
2020/12/22 07:08:05;;;;;;;1.80;0.73;;;13.40;94.30;;;;;;5078002;28;20376;-79
2020/12/22 07:10:35;;;;;;;4.45;0.55;;;13.40;94.20;;;;;;5061971;28;20028;-79
2020/12/22 07:13:03;;;;;;;1.27;0.60;;;13.40;94.20;;;;;;5078710;28;20051;-79
2020/12/22 07:15:34;;;;;;;2.40;0.57;;;13.40;94.10;;;;;;5078498;28;20020;-79
2020/12/22 07:18:08;;;;;;;1.92;0.65;;;13.40;94.10;;;;;;5079551;28;20389;-79
2020/12/22 07:20:34;;;;;;;1.52;0.60;;;13.40;94.00;;;;;;5076306;28;20052;-79
2020/12/22 07:23:01;;;;;;;2.10;0.70;;;13.40;93.90;;;;;;5064553;28;20073;-79
2020/12/22 07:25:28;;;;;;;2.22;0.60;;;13.40;93.70;;;;;;5096441;28;20042;-79
2020/12/22 07:27:53;;;;;;;1.65;0.70;;;13.40;93.60;;;;;;5061873;28;20024;-79
2020/12/22 07:30:19;;;;;;;3.00;0.60;;;13.40;93.50;;;;;;5060063;28;20362;-80
2020/12/22 07:32:45;;;;;;;3.78;0.60;;;13.50;93.40;;;;;;5075901;28;20036;-80
2020/12/22 07:35:12;;;;;;;1.13;0.60;;;13.50;93.40;;;;;;5058203;28;20029;-79
2020/12/22 07:37:38;;;;;;;1.15;0.60;;;13.50;93.40;;;;;;5058151;28;20029;-79
2020/12/22 07:40:09;;;;;;;2.35;0.60;;;13.50;93.40;;;;;;5058154;28;20488;-79
2020/12/22 07:42:35;;;;;;;3.80;0.68;;;13.40;93.50;;;;;;5058022;28;20024;-79
2020/12/22 07:45:06;;;;;;;3.25;0.80;;;13.40;93.60;;;;;;5058131;28;20024;-79
2020/12/22 07:47:32;;;;;;;4.00;0.95;;;13.40;93.70;;;;;;5057965;28;20043;-79
2020/12/22 07:50:12;;;;;;;2.40;1.02;;;13.40;93.80;;;;;;5076267;28;20043;-79
2020/12/22 07:52:38;;;;;;;2.17;1.00;;;13.40;93.90;;;;;;5041032;28;20060;-79
2020/12/22 07:55:03;;;;;;;3.03;0.85;;;13.30;93.90;;;;;;5066654;28;20102;-79
2020/12/22 07:57:30;;;;;;;1.58;0.70;;;13.30;93.90;;;;;;5043175;28;20035;-79
2020/12/22 08:00:08;;;;;;;3.65;1.05;;;13.30;93.90;;;;;;5095766;28;20022;-80
2020/12/22 08:02:34;;;;;;;2.63;0.82;;;13.30;93.90;;;;;;5077769;28;20020;-84
2020/12/22 08:05:14;;;;;;;3.60;0.75;;;13.30;93.80;;;;;;5060938;28;20052;-83
2020/12/22 08:07:44;;;;;;;4.30;0.70;;;13.40;93.90;;;;;;5061198;28;20031;-84
2020/12/22 08:10:11;;;;;;;4.13;0.90;;;13.30;93.80;;;;;;5070703;28;20111;-84
2020/12/22 08:12:38;;;;;;;2.42;0.70;;;13.40;93.70;;;;;;5057171;28;20032;-83
2020/12/22 08:15:05;;;;;;;5.00;0.63;;;13.40;93.60;;;;;;5075340;28;20032;-83
2020/12/22 08:17:35;;;;;;;5.15;0.77;;;13.40;93.50;;;;;;5034170;28;20035;-83
2020/12/22 08:20:02;;;;;;;2.80;0.60;;;13.40;93.40;;;;;;5095977;28;20059;-87
2020/12/22 08:22:29;;;;;;;2.58;0.75;;;13.40;93.30;;;;;;5061185;28;20115;-87
2020/12/22 08:24:55;;;;;;;2.17;0.60;;;13.40;93.30;;;;;;5061021;28;20119;-87
2020/12/22 08:27:22;;;;;;;2.33;0.88;;;13.40;93.30;;;;;;5038245;28;20056;-87
2020/12/22 08:29:48;;;;;;;3.80;0.60;;;13.40;93.10;;;;;;5055765;28;20025;-87
2020/12/22 08:32:15;;;;;;;2.38;0.68;;;13.40;93.10;;;;;;5055800;28;20524;-87
2020/12/22 08:34:45;;;;;;;5.63;0.90;;;13.40;92.90;;;;;;5067150;28;20085;-87
2020/12/22 08:37:11;;;;;;;6.03;0.68;;;13.50;92.90;;;;;;5041933;28;20123;-87
2020/12/22 08:39:41;;;;;;;3.75;0.50;;;13.50;92.50;;;;;;5042270;28;20060;-87
2020/12/22 08:42:09;;;;;;;2.90;0.55;;;13.50;92.30;;;;;;5041822;28;20032;-87
2020/12/22 08:44:35;;;;;;;2.92;0.63;;;13.50;92.20;;;;;;5076681;28;20021;-86
2020/12/22 08:47:13;;;;;;;5.05;0.90;;;13.60;92.10;;;;;;5058304;28;20086;-87
2020/12/22 08:49:39;;;;;;;2.87;0.40;;;13.60;92.00;;;;;;5039558;28;20115;-79
2020/12/22 08:52:10;;;;;;;3.63;0.60;;;13.60;92.30;;;;;;5054738;28;20268;-80
2020/12/22 08:54:36;;;;;;;3.38;0.70;;;13.60;92.00;;;;;;5036802;28;20025;-79
2020/12/22 08:57:08;;;;;;;3.03;0.80;;;13.50;91.90;;;;;;5036903;28;20109;-79
2020/12/22 08:59:34;;;;;;;6.03;0.82;;;13.50;92.00;;;;;;5036735;28;20025;-78
2020/12/22 09:02:00;;;;;;;2.17;0.88;;;13.60;92.00;;;;;;5036679;28;20033;-79
2020/12/22 09:04:30;;;;;;;3.78;0.47;;;13.60;91.80;;;;;;5029437;28;20048;-79
2020/12/22 09:06:56;;;;;;;6.78;1.08;;;13.60;91.80;;;;;;5054396;28;20036;-80
2020/12/22 09:09:30;;;;;;;3.58;0.50;;;13.70;91.80;;;;;;5069640;28;20389;-79
2020/12/22 09:12:10;;;;;;;2.58;0.50;;;13.70;91.70;;;;;;5087203;28;20151;-86
2020/12/22 09:14:49;;;;;;;3.25;0.50;;;13.70;91.60;;;;;;5053957;28;20466;-86
2020/12/22 09:17:34;;;;;;;4.70;0.50;;;13.80;91.50;;;;;;5069450;28;20029;-87
2020/12/22 09:20:03;;;;;;;2.92;0.60;;;13.80;91.50;;;;;;5070489;28;20033;-87
2020/12/22 09:22:31;;;;;;;2.15;0.40;;;13.70;91.60;;;;;;5071431;28;20028;-87
2020/12/22 09:25:00;;;;;;;4.63;0.57;;;13.70;91.80;;;;;;5073873;28;20358;-86
2020/12/22 09:27:33;;;;;;;1.92;0.50;;;13.70;92.10;;;;;;5073505;28;20481;-87
2020/12/22 09:30:00;;;;;;;1.27;0.50;;;13.60;92.20;;;;;;5073461;28;20393;-87
2020/12/22 09:32:26;;;;;;;1.50;0.70;;;13.60;92.40;;;;;;5073196;28;20090;-87
2020/12/22 09:34:52;;;;;;;2.63;0.73;;;13.50;92.70;;;;;;5056856;28;20120;-87
2020/12/22 09:37:20;;;;;;;3.47;0.90;;;13.40;92.90;;;;;;5056656;28;20123;-86
2020/12/22 09:39:46;;;;;;;2.13;0.50;;;13.40;93.00;;;;;;5073320;28;20016;-87
2020/12/22 09:42:12;;;;;;;2.35;0.70;;;13.40;93.10;;;;;;5056613;28;20301;-86
2020/12/22 09:44:37;;;;;;;2.72;0.73;;;13.40;93.20;;;;;;5073156;28;20074;-86
2020/12/22 09:47:04;;;;;;;4.65;0.63;;;13.40;93.30;;;;;;5056300;28;20025;-86
2020/12/22 09:49:30;;;;;;;3.65;0.70;;;13.30;93.30;;;;;;5056051;28;20033;-83
2020/12/22 09:51:55;;;;;;;2.47;0.60;;;13.40;93.30;;;;;;5073450;28;20025;-83
2020/12/22 09:54:22;;;;;;;2.05;0.60;;;13.40;93.30;;;;;;5039312;28;20028;-83
2020/12/22 09:56:48;;;;;;;2.30;0.50;;;13.40;93.20;;;;;;5072848;28;20081;-86
2020/12/22 09:59:15;;;;;;;2.40;0.63;;;13.40;93.20;;;;;;5072495;28;20028;-85
2020/12/22 10:01:41;;;;;;;2.08;0.65;;;13.50;93.20;;;;;;5072384;28;20027;-86
2020/12/22 10:04:07;;;;;;;3.75;0.65;;;13.50;93.20;;;;;;5058870;28;20048;-86
2020/12/22 10:06:33;;;;;;;1.05;0.50;;;13.50;93.30;;;;;;5058752;28;20498;-83
2020/12/22 10:08:59;;;;;;;4.93;0.55;;;13.50;93.30;;;;;;5094063;28;20047;-88
2020/12/22 10:11:25;;;;;;;2.58;0.63;;;13.50;93.50;;;;;;5075988;28;20031;-88
2020/12/22 10:13:52;;;;;;;1.92;0.50;;;13.50;93.20;;;;;;5076304;28;20039;-88
2020/12/22 10:16:20;;;;;;;1.42;0.50;;;13.50;93.20;;;;;;5058985;28;20110;-89
2020/12/22 10:18:45;;;;;;;2.53;0.77;;;13.50;93.10;;;;;;5075448;28;20020;-86
2020/12/22 10:21:13;;;;;;;3.45;0.70;;;13.40;93.00;;;;;;5075899;28;20024;-87
2020/12/22 10:23:40;;;;;;;2.53;0.80;;;13.40;93.00;;;;;;5094051;28;20024;-87
2020/12/22 10:26:08;;;;;;;5.57;1.00;;;13.40;93.20;;;;;;5076197;28;20019;-87
2020/12/22 10:28:36;;;;;;;1.33;0.77;;;13.30;93.40;;;;;;5094043;28;20020;-87
2020/12/22 10:31:02;;;;;;;2.17;0.90;;;13.20;93.30;;;;;;5076059;28;20024;-87
2020/12/22 10:33:28;;;;;;;3.63;0.80;;;13.10;93.40;;;;;;5059746;28;20077;-87
2020/12/22 10:35:54;;;;;;;5.05;0.80;;;13.10;93.60;;;;;;5095469;28;20020;-87
2020/12/22 10:38:20;;;;;;;1.85;0.70;;;13.10;93.70;;;;;;5097860;28;20035;-87
2020/12/22 10:40:46;;;;;;;2.72;0.65;;;13.10;93.80;;;;;;5080230;28;20024;-86
2020/12/22 10:43:12;;;;;;;1.92;0.60;;;13.10;93.80;;;;;;5080398;28;20057;-87
2020/12/22 10:45:38;;;;;;;6.32;0.70;;;13.10;93.70;;;;;;5063258;28;20039;-86
2020/12/22 10:48:06;;;;;;;3.25;0.80;;;13.10;93.50;;;;;;5079673;28;20117;-85
2020/12/22 10:50:32;;;;;;;1.63;0.85;;;13.10;93.60;;;;;;5062758;28;20426;-85
2020/12/22 10:52:58;;;;;;;3.65;0.90;;;13.10;93.60;;;;;;5079430;28;20480;-86
2020/12/22 10:55:24;;;;;;;3.05;0.80;;;13.10;93.60;;;;;;5079503;28;20036;-86
2020/12/22 10:57:51;;;;;;;2.58;0.73;;;13.10;93.50;;;;;;5097406;28;20032;-86
2020/12/22 11:00:17;;;;;;;1.13;0.70;;;13.10;93.40;;;;;;5078546;28;20059;-86
2020/12/22 11:02:44;;;;;;;2.90;1.08;;;13.10;93.30;;;;;;5078684;28;20012;-80
2020/12/22 11:05:10;;;;;;;2.13;0.88;;;13.10;93.20;;;;;;5083025;28;20043;-86
2020/12/22 11:10:01;;;;;;;3.17;0.93;;;13.20;93.10;;;;;;5130683;27;20067;-85
2020/12/22 11:12:27;;;;;;;2.40;0.60;;;13.20;92.70;;;;;;5095932;28;20028;-83
2020/12/22 11:14:53;;;;;;;2.15;0.73;;;13.30;92.50;;;;;;5100645;28;20081;-78
2020/12/22 11:17:18;;;;;;;1.30;0.50;;;13.30;92.10;;;;;;5045205;28;20032;-79
2020/12/22 11:19:44;;;;;;;3.78;0.70;;;13.30;92.10;;;;;;5061986;28;20415;-79
2020/12/22 11:22:10;;;;;;;2.70;0.70;;;13.30;92.10;;;;;;5062178;28;20051;-78
2020/12/22 11:24:36;;;;;;;5.03;0.90;;;13.30;92.10;;;;;;5061767;28;20067;-78
2020/12/22 11:27:02;;;;;;;2.65;0.90;;;13.30;92.00;;;;;;5078448;28;20484;-79
2020/12/22 11:29:27;;;;;;;2.42;0.90;;;13.40;91.80;;;;;;5096223;28;20080;-79
2020/12/22 11:31:53;;;;;;;2.20;1.10;;;13.40;91.80;;;;;;5045051;28;20389;-79
2020/12/22 11:34:19;;;;;;;1.70;0.90;;;13.30;91.80;;;;;;5061424;28;20039;-79
2020/12/22 11:36:49;;;;;;;4.82;0.82;;;13.40;91.90;;;;;;5061375;28;20024;-79
2020/12/22 11:39:15;;;;;;;3.15;0.95;;;13.30;91.80;;;;;;5096090;28;20020;-79
2020/12/22 11:41:41;;;;;;;3.67;0.73;;;13.40;92.10;;;;;;5054774;28;20046;-79
2020/12/22 11:44:07;;;;;;;1.70;0.70;;;13.50;91.70;;;;;;5072936;28;20118;-79
2020/12/22 11:46:33;;;;;;;7.07;1.30;;;13.60;91.30;;;;;;5056783;28;20032;-79
2020/12/22 11:48:58;;;;;;;3.25;0.80;;;14.10;90.40;;;;;;5073528;28;20063;-79
2020/12/22 11:51:24;;;;;;;3.13;0.70;;;14.20;90.00;;;;;;5090680;28;20024;-79
2020/12/22 11:53:49;;;;;;;3.00;0.60;;;14.40;88.80;;;;;;5072330;28;20032;-79
2020/12/22 11:56:15;;;;;;;3.50;0.80;;;14.50;88.50;;;;;;5088592;28;20020;-79
2020/12/22 11:58:41;;;;;;;3.42;0.70;;;14.60;88.00;;;;;;5073428;28;20496;-79
2020/12/22 12:01:06;;;;;;;6.00;0.68;;;14.90;86.90;;;;;;5073629;28;20027;-79
2020/12/22 12:03:32;;;;;;;1.92;0.50;;;15.50;84.50;;;;;;5056779;28;20108;-79
2020/12/22 12:05:58;;;;;;;4.55;0.90;;;15.70;83.40;;;;;;5090488;28;20024;-79
2020/12/22 12:08:23;;;;;;;2.38;0.68;;;15.70;83.20;;;;;;5107539;28;20111;-80
2020/12/22 12:10:49;;;;;;;4.57;0.85;;;16.00;81.90;;;;;;5107572;28;20047;-80
2020/12/22 12:13:15;;;;;;;3.47;0.82;;;16.40;80.00;;;;;;5090295;28;20063;-80
2020/12/22 12:15:40;;;;;;;3.38;0.70;;;16.60;79.10;;;;;;5090548;28;20074;-80
2020/12/22 12:18:06;;;;;;;4.93;0.70;;;16.70;78.80;;;;;;5090447;28;20554;-80
2020/12/22 12:20:32;;;;;;;4.43;0.57;;;16.90;77.40;;;;;;5056981;28;20526;-80
2020/12/22 12:22:57;;;;;;;1.10;0.40;;;17.20;76.20;;;;;;5090003;28;20028;-80
2020/12/22 12:25:23;;;;;;;1.75;0.57;;;17.50;75.10;;;;;;5073588;28;20035;-80
2020/12/22 12:27:48;;;;;;;3.70;0.70;;;17.70;73.70;;;;;;5073108;28;20111;-80
2020/12/22 12:30:15;;;;;;;3.70;0.52;;;17.90;72.50;;;;;;5078489;28;20032;-74
2020/12/22 12:32:42;;;;;;;4.63;0.50;;;17.90;72.80;;;;;;5076839;28;20062;-75
2020/12/22 12:35:08;;;;;;;1.67;0.60;;;17.40;74.20;;;;;;5076897;28;20052;-75
2020/12/22 12:37:34;;;;;;;2.63;0.60;;;16.80;76.20;;;;;;5075987;28;20063;-75
2020/12/22 12:39:59;;;;;;;1.42;0.47;;;16.20;78.60;;;;;;5076957;28;20056;-75
2020/12/22 12:42:29;;;;;;;1.92;0.60;;;15.90;80.20;;;;;;5074927;28;20133;-75
2020/12/22 12:44:55;;;;;;;2.72;0.50;;;15.60;80.90;;;;;;5077115;28;20539;-75
2020/12/22 12:47:21;;;;;;;3.72;0.50;;;15.40;82.00;;;;;;5076858;28;20028;-76
2020/12/22 12:49:46;;;;;;;1.50;0.60;;;15.20;82.80;;;;;;5076870;28;20035;-75